sensor_id;sensor_type;location;lat;lon;timestamp;P1;durP1;ratioP1;P2;durP2;ratioP2
35795;SDS011;21916;52.428;13.302;2023-02-01T00:00:47;19.52;;;3.83;;
35795;SDS011;21916;52.428;13.302;2023-02-01T00:03:13;14.60;;;3.38;;
35795;SDS011;21916;52.428;13.302;2023-02-01T00:05:39;9.35;;;2.42;;
35795;SDS011;21916;52.428;13.302;2023-02-01T00:08:05;24.42;;;5.68;;
35795;SDS011;21916;52.428;13.302;2023-02-01T00:10:31;10.07;;;3.63;;
35795;SDS011;21916;52.428;13.302;2023-02-01T00:12:57;14.43;;;2.20;;
35795;SDS011;21916;52.428;13.302;2023-02-01T00:15:23;20.92;;;3.47;;
35795;SDS011;21916;52.428;13.302;2023-02-01T00:17:55;27.50;;;4.45;;
35795;SDS011;21916;52.428;13.302;2023-02-01T00:20:21;17.35;;;3.15;;
35795;SDS011;21916;52.428;13.302;2023-02-01T00:22:47;13.73;;;2.38;;
35795;SDS011;21916;52.428;13.302;2023-02-01T00:25:13;15.98;;;3.13;;
35795;SDS011;21916;52.428;13.302;2023-02-01T00:27:38;12.30;;;2.83;;
35795;SDS011;21916;52.428;13.302;2023-02-01T00:30:05;14.82;;;2.45;;
35795;SDS011;21916;52.428;13.302;2023-02-01T00:32:31;15.50;;;2.60;;
35795;SDS011;21916;52.428;13.302;2023-02-01T00:34:57;14.40;;;4.72;;
35795;SDS011;21916;52.428;13.302;2023-02-01T00:37:23;17.77;;;2.50;;
35795;SDS011;21916;52.428;13.302;2023-02-01T00:39:48;16.70;;;2.75;;
35795;SDS011;21916;52.428;13.302;2023-02-01T00:42:15;24.15;;;3.67;;
35795;SDS011;21916;52.428;13.302;2023-02-01T00:44:41;17.00;;;2.47;;
35795;SDS011;21916;52.428;13.302;2023-02-01T00:47:07;23.33;;;3.28;;
35795;SDS011;21916;52.428;13.302;2023-02-01T00:49:33;20.52;;;3.67;;
35795;SDS011;21916;52.428;13.302;2023-02-01T00:51:59;15.38;;;3.08;;
35795;SDS011;21916;52.428;13.302;2023-02-01T00:54:24;10.07;;;1.70;;
35795;SDS011;21916;52.428;13.302;2023-02-01T00:56:50;13.32;;;3.15;;
35795;SDS011;21916;52.428;13.302;2023-02-01T00:59:17;18.85;;;2.35;;
35795;SDS011;21916;52.428;13.302;2023-02-01T01:01:43;13.50;;;2.25;;
35795;SDS011;21916;52.428;13.302;2023-02-01T01:04:09;12.80;;;2.95;;
35795;SDS011;21916;52.428;13.302;2023-02-01T01:06:35;24.23;;;3.70;;
35795;SDS011;21916;52.428;13.302;2023-02-01T01:09:03;6.22;;;1.77;;
35795;SDS011;21916;52.428;13.302;2023-02-01T01:11:31;8.13;;;2.20;;
35795;SDS011;21916;52.428;13.302;2023-02-01T01:14:00;6.78;;;1.63;;
35795;SDS011;21916;52.428;13.302;2023-02-01T01:16:26;15.60;;;3.50;;
35795;SDS011;21916;52.428;13.302;2023-02-01T01:18:54;13.73;;;2.72;;
35795;SDS011;21916;52.428;13.302;2023-02-01T01:21:20;18.88;;;3.15;;
35795;SDS011;21916;52.428;13.302;2023-02-01T01:23:46;14.05;;;2.42;;
35795;SDS011;21916;52.428;13.302;2023-02-01T01:26:20;10.77;;;2.58;;
35795;SDS011;21916;52.428;13.302;2023-02-01T01:28:48;15.82;;;2.92;;
35795;SDS011;21916;52.428;13.302;2023-02-01T01:31:14;13.70;;;2.83;;
35795;SDS011;21916;52.428;13.302;2023-02-01T01:33:43;12.20;;;2.13;;
35795;SDS011;21916;52.428;13.302;2023-02-01T01:36:10;11.65;;;2.15;;
35795;SDS011;21916;52.428;13.302;2023-02-01T01:38:36;9.90;;;1.75;;
35795;SDS011;21916;52.428;13.302;2023-02-01T01:41:03;23.35;;;2.50;;
35795;SDS011;21916;52.428;13.302;2023-02-01T01:46:33;16.65;;;2.67;;
35795;SDS011;21916;52.428;13.302;2023-02-01T01:49:03;9.48;;;1.90;;
35795;SDS011;21916;52.428;13.302;2023-02-01T01:51:38;19.55;;;3.28;;
35795;SDS011;21916;52.428;13.302;2023-02-01T01:54:11;12.43;;;3.50;;
35795;SDS011;21916;52.428;13.302;2023-02-01T01:56:45;11.32;;;2.83;;
35795;SDS011;21916;52.428;13.302;2023-02-01T01:59:15;15.35;;;2.67;;
35795;SDS011;21916;52.428;13.302;2023-02-01T02:01:42;18.65;;;3.22;;
35795;SDS011;21916;52.428;13.302;2023-02-01T02:04:08;12.20;;;2.60;;
35795;SDS011;21916;52.428;13.302;2023-02-01T02:09:10;10.75;;;2.88;;
35795;SDS011;21916;52.428;13.302;2023-02-01T02:11:36;13.65;;;3.78;;
35795;SDS011;21916;52.428;13.302;2023-02-01T02:14:02;12.05;;;2.55;;
35795;SDS011;21916;52.428;13.302;2023-02-01T02:16:38;15.75;;;3.65;;
35795;SDS011;21916;52.428;13.302;2023-02-01T02:19:32;14.18;;;2.55;;
35795;SDS011;21916;52.428;13.302;2023-02-01T02:22:16;17.10;;;3.03;;
35795;SDS011;21916;52.428;13.302;2023-02-01T02:27:33;17.90;;;3.38;;
35795;SDS011;21916;52.428;13.302;2023-02-01T02:35:41;15.00;;;2.88;;
35795;SDS011;21916;52.428;13.302;2023-02-01T02:41:14;19.30;;;2.83;;
35795;SDS011;21916;52.428;13.302;2023-02-01T02:44:10;18.30;;;3.75;;
35795;SDS011;21916;52.428;13.302;2023-02-01T02:47:00;14.00;;;2.08;;
35795;SDS011;21916;52.428;13.302;2023-02-01T02:50:03;18.83;;;3.22;;
35795;SDS011;21916;52.428;13.302;2023-02-01T02:53:01;9.38;;;2.55;;
35795;SDS011;21916;52.428;13.302;2023-02-01T02:55:51;17.70;;;2.85;;
35795;SDS011;21916;52.428;13.302;2023-02-01T02:58:27;12.10;;;3.63;;
35795;SDS011;21916;52.428;13.302;2023-02-01T03:01:11;30.33;;;4.25;;
35795;SDS011;21916;52.428;13.302;2023-02-01T03:03:56;23.20;;;4.05;;
35795;SDS011;21916;52.428;13.302;2023-02-01T03:06:36;13.60;;;2.45;;
35795;SDS011;21916;52.428;13.302;2023-02-01T03:09:04;17.10;;;5.20;;
35795;SDS011;21916;52.428;13.302;2023-02-01T03:11:35;19.60;;;2.58;;
35795;SDS011;21916;52.428;13.302;2023-02-01T03:14:21;11.15;;;2.92;;
35795;SDS011;21916;52.428;13.302;2023-02-01T03:16:51;5.28;;;1.90;;
35795;SDS011;21916;52.428;13.302;2023-02-01T03:19:31;19.63;;;2.72;;
35795;SDS011;21916;52.428;13.302;2023-02-01T03:22:02;15.15;;;3.30;;
35795;SDS011;21916;52.428;13.302;2023-02-01T03:24:33;11.38;;;3.15;;
35795;SDS011;21916;52.428;13.302;2023-02-01T03:27:11;19.08;;;3.72;;
35795;SDS011;21916;52.428;13.302;2023-02-01T03:29:56;22.95;;;3.78;;
35795;SDS011;21916;52.428;13.302;2023-02-01T03:32:28;22.65;;;3.38;;
35795;SDS011;21916;52.428;13.302;2023-02-01T03:35:15;25.90;;;4.57;;
35795;SDS011;21916;52.428;13.302;2023-02-01T03:37:41;18.10;;;2.83;;
35795;SDS011;21916;52.428;13.302;2023-02-01T03:40:07;22.95;;;3.65;;
35795;SDS011;21916;52.428;13.302;2023-02-01T03:42:38;18.60;;;3.05;;
35795;SDS011;21916;52.428;13.302;2023-02-01T03:45:13;15.15;;;3.08;;
35795;SDS011;21916;52.428;13.302;2023-02-01T03:47:47;18.33;;;4.15;;
35795;SDS011;21916;52.428;13.302;2023-02-01T03:50:19;18.67;;;3.17;;
35795;SDS011;21916;52.428;13.302;2023-02-01T03:52:50;21.92;;;4.13;;
35795;SDS011;21916;52.428;13.302;2023-02-01T03:55:20;16.33;;;2.80;;
35795;SDS011;21916;52.428;13.302;2023-02-01T04:00:34;23.38;;;3.95;;
35795;SDS011;21916;52.428;13.302;2023-02-01T04:02:59;20.13;;;4.03;;
35795;SDS011;21916;52.428;13.302;2023-02-01T04:05:29;18.80;;;3.28;;
35795;SDS011;21916;52.428;13.302;2023-02-01T04:08:00;20.38;;;3.63;;
35795;SDS011;21916;52.428;13.302;2023-02-01T04:10:26;18.17;;;3.05;;
35795;SDS011;21916;52.428;13.302;2023-02-01T04:12:52;19.25;;;3.28;;
35795;SDS011;21916;52.428;13.302;2023-02-01T04:15:18;18.35;;;3.22;;
35795;SDS011;21916;52.428;13.302;2023-02-01T04:17:44;6.50;;;1.83;;
35795;SDS011;21916;52.428;13.302;2023-02-01T04:20:10;18.88;;;2.90;;
35795;SDS011;21916;52.428;13.302;2023-02-01T04:22:36;17.67;;;3.38;;
35795;SDS011;21916;52.428;13.302;2023-02-01T04:25:02;17.50;;;3.53;;
35795;SDS011;21916;52.428;13.302;2023-02-01T04:27:31;20.17;;;5.10;;
35795;SDS011;21916;52.428;13.302;2023-02-01T04:29:57;26.98;;;4.20;;
35795;SDS011;21916;52.428;13.302;2023-02-01T04:32:23;12.10;;;1.83;;
35795;SDS011;21916;52.428;13.302;2023-02-01T04:34:50;15.45;;;4.00;;
35795;SDS011;21916;52.428;13.302;2023-02-01T04:37:16;13.70;;;3.13;;
35795;SDS011;21916;52.428;13.302;2023-02-01T04:39:42;20.08;;;2.95;;
35795;SDS011;21916;52.428;13.302;2023-02-01T04:42:07;15.52;;;3.63;;
35795;SDS011;21916;52.428;13.302;2023-02-01T04:44:34;22.35;;;3.22;;
35795;SDS011;21916;52.428;13.302;2023-02-01T04:47:02;16.90;;;3.58;;
35795;SDS011;21916;52.428;13.302;2023-02-01T04:49:28;24.05;;;3.75;;
35795;SDS011;21916;52.428;13.302;2023-02-01T04:51:53;12.27;;;3.22;;
35795;SDS011;21916;52.428;13.302;2023-02-01T04:54:19;17.58;;;3.15;;
35795;SDS011;21916;52.428;13.302;2023-02-01T04:56:45;20.60;;;3.78;;
35795;SDS011;21916;52.428;13.302;2023-02-01T04:59:11;18.83;;;2.72;;
35795;SDS011;21916;52.428;13.302;2023-02-01T05:01:37;17.75;;;3.30;;
35795;SDS011;21916;52.428;13.302;2023-02-01T05:04:03;18.05;;;4.35;;
35795;SDS011;21916;52.428;13.302;2023-02-01T05:06:29;22.02;;;4.40;;
35795;SDS011;21916;52.428;13.302;2023-02-01T05:08:55;19.55;;;3.05;;
35795;SDS011;21916;52.428;13.302;2023-02-01T05:11:21;14.95;;;3.30;;
35795;SDS011;21916;52.428;13.302;2023-02-01T05:14:06;23.20;;;5.88;;
35795;SDS011;21916;52.428;13.302;2023-02-01T05:16:32;24.77;;;4.20;;
35795;SDS011;21916;52.428;13.302;2023-02-01T05:18:58;11.43;;;3.42;;
35795;SDS011;21916;52.428;13.302;2023-02-01T05:21:24;23.38;;;4.25;;
35795;SDS011;21916;52.428;13.302;2023-02-01T05:23:50;6.35;;;2.30;;
35795;SDS011;21916;52.428;13.302;2023-02-01T05:26:34;18.45;;;2.55;;
35795;SDS011;21916;52.428;13.302;2023-02-01T05:29:04;20.48;;;3.17;;
35795;SDS011;21916;52.428;13.302;2023-02-01T05:31:31;20.33;;;3.47;;
35795;SDS011;21916;52.428;13.302;2023-02-01T05:33:57;23.63;;;3.83;;
35795;SDS011;21916;52.428;13.302;2023-02-01T05:36:23;17.00;;;3.50;;
35795;SDS011;21916;52.428;13.302;2023-02-01T05:38:49;20.98;;;3.88;;
35795;SDS011;21916;52.428;13.302;2023-02-01T05:41:15;16.83;;;3.42;;
35795;SDS011;21916;52.428;13.302;2023-02-01T05:43:41;22.98;;;4.18;;
35795;SDS011;21916;52.428;13.302;2023-02-01T05:46:06;20.48;;;3.15;;
35795;SDS011;21916;52.428;13.302;2023-02-01T05:48:35;15.95;;;2.50;;
35795;SDS011;21916;52.428;13.302;2023-02-01T05:51:01;19.58;;;4.30;;
35795;SDS011;21916;52.428;13.302;2023-02-01T05:53:27;13.27;;;3.50;;
35795;SDS011;21916;52.428;13.302;2023-02-01T05:55:53;9.00;;;2.22;;
35795;SDS011;21916;52.428;13.302;2023-02-01T05:58:19;20.50;;;4.90;;
35795;SDS011;21916;52.428;13.302;2023-02-01T06:00:45;13.77;;;3.75;;
35795;SDS011;21916;52.428;13.302;2023-02-01T06:03:11;16.90;;;3.33;;
35795;SDS011;21916;52.428;13.302;2023-02-01T06:05:37;21.70;;;4.85;;
35795;SDS011;21916;52.428;13.302;2023-02-01T06:08:03;19.52;;;4.35;;
35795;SDS011;21916;52.428;13.302;2023-02-01T06:10:29;14.75;;;2.47;;
35795;SDS011;21916;52.428;13.302;2023-02-01T06:12:55;17.30;;;3.35;;
35795;SDS011;21916;52.428;13.302;2023-02-01T06:15:21;17.83;;;3.47;;
35795;SDS011;21916;52.428;13.302;2023-02-01T06:17:47;19.02;;;3.45;;
35795;SDS011;21916;52.428;13.302;2023-02-01T06:20:13;21.92;;;3.53;;
35795;SDS011;21916;52.428;13.302;2023-02-01T06:22:41;19.02;;;3.15;;
35795;SDS011;21916;52.428;13.302;2023-02-01T06:25:07;15.50;;;4.07;;
35795;SDS011;21916;52.428;13.302;2023-02-01T06:27:35;19.05;;;3.75;;
35795;SDS011;21916;52.428;13.302;2023-02-01T06:30:01;9.85;;;2.25;;
35795;SDS011;21916;52.428;13.302;2023-02-01T06:32:28;27.23;;;3.53;;
35795;SDS011;21916;52.428;13.302;2023-02-01T06:34:54;20.70;;;4.35;;
35795;SDS011;21916;52.428;13.302;2023-02-01T06:37:21;17.98;;;2.50;;
35795;SDS011;21916;52.428;13.302;2023-02-01T06:39:48;21.42;;;3.70;;
35795;SDS011;21916;52.428;13.302;2023-02-01T06:42:14;20.38;;;3.05;;
35795;SDS011;21916;52.428;13.302;2023-02-01T06:44:40;16.85;;;2.97;;
35795;SDS011;21916;52.428;13.302;2023-02-01T06:47:06;23.85;;;4.40;;
35795;SDS011;21916;52.428;13.302;2023-02-01T06:49:32;17.27;;;3.72;;
35795;SDS011;21916;52.428;13.302;2023-02-01T06:51:58;17.65;;;3.13;;
35795;SDS011;21916;52.428;13.302;2023-02-01T06:54:27;16.73;;;3.83;;
35795;SDS011;21916;52.428;13.302;2023-02-01T06:56:53;21.13;;;3.83;;
35795;SDS011;21916;52.428;13.302;2023-02-01T06:59:19;18.52;;;2.95;;
35795;SDS011;21916;52.428;13.302;2023-02-01T07:01:45;21.42;;;3.42;;
35795;SDS011;21916;52.428;13.302;2023-02-01T07:04:11;17.42;;;3.67;;
35795;SDS011;21916;52.428;13.302;2023-02-01T07:06:38;12.30;;;2.28;;
35795;SDS011;21916;52.428;13.302;2023-02-01T07:09:04;14.65;;;2.60;;
35795;SDS011;21916;52.428;13.302;2023-02-01T07:11:30;20.98;;;4.50;;
35795;SDS011;21916;52.428;13.302;2023-02-01T07:13:57;19.27;;;3.03;;
35795;SDS011;21916;52.428;13.302;2023-02-01T07:16:24;17.77;;;3.55;;
35795;SDS011;21916;52.428;13.302;2023-02-01T07:18:50;12.57;;;2.78;;
35795;SDS011;21916;52.428;13.302;2023-02-01T07:21:17;16.67;;;3.92;;
35795;SDS011;21916;52.428;13.302;2023-02-01T07:23:45;15.20;;;3.10;;
35795;SDS011;21916;52.428;13.302;2023-02-01T07:26:12;17.17;;;3.08;;
35795;SDS011;21916;52.428;13.302;2023-02-01T07:28:39;17.67;;;3.72;;
35795;SDS011;21916;52.428;13.302;2023-02-01T07:31:07;22.63;;;5.28;;
35795;SDS011;21916;52.428;13.302;2023-02-01T07:33:38;29.00;;;4.23;;
35795;SDS011;21916;52.428;13.302;2023-02-01T07:36:05;20.20;;;4.18;;
35795;SDS011;21916;52.428;13.302;2023-02-01T07:38:32;13.93;;;3.60;;
35795;SDS011;21916;52.428;13.302;2023-02-01T07:40:59;17.92;;;2.33;;
35795;SDS011;21916;52.428;13.302;2023-02-01T07:43:26;23.10;;;3.78;;
35795;SDS011;21916;52.428;13.302;2023-02-01T07:45:53;18.83;;;3.95;;
35795;SDS011;21916;52.428;13.302;2023-02-01T07:48:20;13.98;;;3.60;;
35795;SDS011;21916;52.428;13.302;2023-02-01T07:50:47;19.25;;;4.40;;
35795;SDS011;21916;52.428;13.302;2023-02-01T07:53:13;16.35;;;3.17;;
35795;SDS011;21916;52.428;13.302;2023-02-01T07:55:40;24.10;;;5.30;;
35795;SDS011;21916;52.428;13.302;2023-02-01T07:58:06;11.38;;;4.05;;
35795;SDS011;21916;52.428;13.302;2023-02-01T08:00:32;13.55;;;4.35;;
35795;SDS011;21916;52.428;13.302;2023-02-01T08:03:16;15.32;;;3.42;;
35795;SDS011;21916;52.428;13.302;2023-02-01T08:05:42;22.15;;;4.85;;
35795;SDS011;21916;52.428;13.302;2023-02-01T08:08:08;14.85;;;3.42;;
35795;SDS011;21916;52.428;13.302;2023-02-01T08:10:34;14.48;;;3.40;;
35795;SDS011;21916;52.428;13.302;2023-02-01T08:13:01;13.80;;;3.58;;
35795;SDS011;21916;52.428;13.302;2023-02-01T08:15:28;16.15;;;4.65;;
35795;SDS011;21916;52.428;13.302;2023-02-01T08:17:54;21.65;;;4.97;;
35795;SDS011;21916;52.428;13.302;2023-02-01T08:20:21;11.02;;;3.60;;
35795;SDS011;21916;52.428;13.302;2023-02-01T08:22:54;9.27;;;3.67;;
35795;SDS011;21916;52.428;13.302;2023-02-01T08:25:20;16.55;;;4.05;;
35795;SDS011;21916;52.428;13.302;2023-02-01T08:27:47;24.00;;;5.47;;
35795;SDS011;21916;52.428;13.302;2023-02-01T08:30:12;17.92;;;4.25;;
35795;SDS011;21916;52.428;13.302;2023-02-01T08:32:38;10.32;;;3.90;;
35795;SDS011;21916;52.428;13.302;2023-02-01T08:35:05;16.67;;;5.55;;
35795;SDS011;21916;52.428;13.302;2023-02-01T08:37:32;19.88;;;4.88;;
35795;SDS011;21916;52.428;13.302;2023-02-01T08:39:57;17.55;;;5.05;;
35795;SDS011;21916;52.428;13.302;2023-02-01T08:42:23;12.27;;;3.80;;
35795;SDS011;21916;52.428;13.302;2023-02-01T08:45:08;20.75;;;4.18;;
35795;SDS011;21916;52.428;13.302;2023-02-01T08:47:34;11.60;;;2.58;;
35795;SDS011;21916;52.428;13.302;2023-02-01T08:50:00;15.70;;;3.83;;
35795;SDS011;21916;52.428;13.302;2023-02-01T08:52:26;13.07;;;3.05;;
35795;SDS011;21916;52.428;13.302;2023-02-01T08:54:52;7.97;;;2.72;;
35795;SDS011;21916;52.428;13.302;2023-02-01T08:57:18;6.80;;;1.70;;
35795;SDS011;21916;52.428;13.302;2023-02-01T08:59:44;4.95;;;1.27;;
35795;SDS011;21916;52.428;13.302;2023-02-01T09:02:13;3.00;;;1.63;;
35795;SDS011;21916;52.428;13.302;2023-02-01T09:04:40;10.07;;;2.13;;
35795;SDS011;21916;52.428;13.302;2023-02-01T09:07:07;8.30;;;1.80;;
35795;SDS011;21916;52.428;13.302;2023-02-01T09:09:36;4.75;;;1.77;;
35795;SDS011;21916;52.428;13.302;2023-02-01T09:12:02;5.22;;;1.50;;
35795;SDS011;21916;52.428;13.302;2023-02-01T09:14:28;4.20;;;1.55;;
35795;SDS011;21916;52.428;13.302;2023-02-01T09:16:54;2.40;;;1.00;;
35795;SDS011;21916;52.428;13.302;2023-02-01T09:19:20;4.30;;;1.48;;
35795;SDS011;21916;52.428;13.302;2023-02-01T09:21:46;5.15;;;1.77;;
35795;SDS011;21916;52.428;13.302;2023-02-01T09:24:15;22.65;;;1.85;;
35795;SDS011;21916;52.428;13.302;2023-02-01T09:26:41;5.60;;;2.03;;
35795;SDS011;21916;52.428;13.302;2023-02-01T09:29:06;4.43;;;1.80;;
35795;SDS011;21916;52.428;13.302;2023-02-01T09:31:35;2.67;;;1.23;;
35795;SDS011;21916;52.428;13.302;2023-02-01T09:34:02;4.18;;;1.33;;
35795;SDS011;21916;52.428;13.302;2023-02-01T09:36:28;10.80;;;1.67;;
35795;SDS011;21916;52.428;13.302;2023-02-01T09:38:54;16.63;;;5.75;;
35795;SDS011;21916;52.428;13.302;2023-02-01T09:46:48;5.45;;;1.42;;
35795;SDS011;21916;52.428;13.302;2023-02-01T09:49:18;5.90;;;1.20;;
35795;SDS011;21916;52.428;13.302;2023-02-01T09:51:48;2.80;;;1.00;;
35795;SDS011;21916;52.428;13.302;2023-02-01T09:54:17;1.95;;;1.20;;
35795;SDS011;21916;52.428;13.302;2023-02-01T10:02:03;3.53;;;1.60;;
35795;SDS011;21916;52.428;13.302;2023-02-01T10:04:34;9.05;;;2.55;;
35795;SDS011;21916;52.428;13.302;2023-02-01T10:07:16;2.03;;;0.90;;
35795;SDS011;21916;52.428;13.302;2023-02-01T10:15:50;4.00;;;1.50;;
35795;SDS011;21916;52.428;13.302;2023-02-01T10:18:37;1.33;;;0.80;;
35795;SDS011;21916;52.428;13.302;2023-02-01T10:21:18;1.17;;;0.82;;
35795;SDS011;21916;52.428;13.302;2023-02-01T10:26:42;3.30;;;1.65;;
35795;SDS011;21916;52.428;13.302;2023-02-01T10:29:19;4.30;;;1.10;;
35795;SDS011;21916;52.428;13.302;2023-02-01T10:31:48;5.40;;;1.00;;
35795;SDS011;21916;52.428;13.302;2023-02-01T10:34:18;5.05;;;1.20;;
35795;SDS011;21916;52.428;13.302;2023-02-01T10:37:17;4.20;;;1.08;;
35795;SDS011;21916;52.428;13.302;2023-02-01T10:39:46;3.03;;;0.70;;
35795;SDS011;21916;52.428;13.302;2023-02-01T10:42:14;3.60;;;0.95;;
35795;SDS011;21916;52.428;13.302;2023-02-01T10:44:43;2.38;;;0.70;;
35795;SDS011;21916;52.428;13.302;2023-02-01T10:47:10;1.25;;;0.57;;
35795;SDS011;21916;52.428;13.302;2023-02-01T10:49:42;7.40;;;1.10;;
35795;SDS011;21916;52.428;13.302;2023-02-01T10:54:42;4.30;;;0.93;;
35795;SDS011;21916;52.428;13.302;2023-02-01T10:57:09;4.90;;;1.20;;
35795;SDS011;21916;52.428;13.302;2023-02-01T10:59:36;9.93;;;1.17;;
35795;SDS011;21916;52.428;13.302;2023-02-01T11:02:15;8.27;;;1.67;;
35795;SDS011;21916;52.428;13.302;2023-02-01T11:04:48;8.48;;;1.50;;
35795;SDS011;21916;52.428;13.302;2023-02-01T11:07:23;6.57;;;2.30;;
35795;SDS011;21916;52.428;13.302;2023-02-01T11:09:54;5.68;;;1.33;;
35795;SDS011;21916;52.428;13.302;2023-02-01T11:17:47;12.13;;;1.55;;
35795;SDS011;21916;52.428;13.302;2023-02-01T11:20:37;8.10;;;2.00;;
35795;SDS011;21916;52.428;13.302;2023-02-01T11:23:14;6.88;;;1.83;;
35795;SDS011;21916;52.428;13.302;2023-02-01T11:25:48;9.48;;;2.72;;
35795;SDS011;21916;52.428;13.302;2023-02-01T11:28:20;8.10;;;2.05;;
35795;SDS011;21916;52.428;13.302;2023-02-01T11:30:48;6.38;;;1.00;;
35795;SDS011;21916;52.428;13.302;2023-02-01T11:33:18;7.28;;;0.88;;
35795;SDS011;21916;52.428;13.302;2023-02-01T11:35:46;5.43;;;1.50;;
35795;SDS011;21916;52.428;13.302;2023-02-01T11:38:19;3.35;;;1.25;;
35795;SDS011;21916;52.428;13.302;2023-02-01T11:40:45;5.97;;;1.15;;
35795;SDS011;21916;52.428;13.302;2023-02-01T11:43:28;7.07;;;1.08;;
35795;SDS011;21916;52.428;13.302;2023-02-01T11:45:58;6.88;;;1.27;;
35795;SDS011;21916;52.428;13.302;2023-02-01T11:48:26;5.55;;;1.40;;
35795;SDS011;21916;52.428;13.302;2023-02-01T11:56:37;5.63;;;1.92;;
35795;SDS011;21916;52.428;13.302;2023-02-01T12:02:11;4.40;;;1.63;;
35795;SDS011;21916;52.428;13.302;2023-02-01T12:07:22;7.45;;;1.60;;
35795;SDS011;21916;52.428;13.302;2023-02-01T12:12:46;8.98;;;2.80;;
35795;SDS011;21916;52.428;13.302;2023-02-01T12:16:02;11.45;;;1.70;;
35795;SDS011;21916;52.428;13.302;2023-02-01T12:18:17;8.23;;;1.95;;
35795;SDS011;21916;52.428;13.302;2023-02-01T12:34:49;8.50;;;2.00;;
35795;SDS011;21916;52.428;13.302;2023-02-01T12:45:56;4.05;;;1.08;;
35795;SDS011;21916;52.428;13.302;2023-02-01T12:51:22;8.80;;;2.20;;
35795;SDS011;21916;52.428;13.302;2023-02-01T12:57:09;5.55;;;1.30;;
35795;SDS011;21916;52.428;13.302;2023-02-01T12:59:28;9.57;;;2.15;;
35795;SDS011;21916;52.428;13.302;2023-02-01T13:04:56;3.35;;;1.25;;
35795;SDS011;21916;52.428;13.302;2023-02-01T13:10:21;4.60;;;1.33;;
35795;SDS011;21916;52.428;13.302;2023-02-01T13:15:46;4.20;;;1.00;;
35795;SDS011;21916;52.428;13.302;2023-02-01T13:18:25;5.28;;;1.23;;
35795;SDS011;21916;52.428;13.302;2023-02-01T13:21:05;9.50;;;1.95;;
35795;SDS011;21916;52.428;13.302;2023-02-01T13:23:39;5.00;;;1.33;;
35795;SDS011;21916;52.428;13.302;2023-02-01T13:26:06;9.38;;;1.67;;
35795;SDS011;21916;52.428;13.302;2023-02-01T13:28:56;6.47;;;1.48;;
35795;SDS011;21916;52.428;13.302;2023-02-01T13:42:18;10.98;;;2.78;;
35795;SDS011;21916;52.428;13.302;2023-02-01T13:44:57;11.90;;;2.47;;
35795;SDS011;21916;52.428;13.302;2023-02-01T13:47:46;10.48;;;2.42;;
35795;SDS011;21916;52.428;13.302;2023-02-01T13:52:51;6.55;;;2.10;;
35795;SDS011;21916;52.428;13.302;2023-02-01T13:55:46;2.95;;;1.58;;
35795;SDS011;21916;52.428;13.302;2023-02-01T13:58:31;11.23;;;2.20;;
35795;SDS011;21916;52.428;13.302;2023-02-01T14:03:53;6.50;;;2.03;;
35795;SDS011;21916;52.428;13.302;2023-02-01T14:11:40;7.20;;;2.55;;
35795;SDS011;21916;52.428;13.302;2023-02-01T14:17:29;9.73;;;2.10;;
35795;SDS011;21916;52.428;13.302;2023-02-01T14:19:36;12.02;;;2.63;;
35795;SDS011;21916;52.428;13.302;2023-02-01T14:25:00;10.15;;;2.17;;
35795;SDS011;21916;52.428;13.302;2023-02-01T14:27:28;19.55;;;3.65;;
35795;SDS011;21916;52.428;13.302;2023-02-01T14:30:01;8.93;;;2.90;;
35795;SDS011;21916;52.428;13.302;2023-02-01T14:32:39;14.63;;;3.97;;
35795;SDS011;21916;52.428;13.302;2023-02-01T14:35:17;13.10;;;2.50;;
35795;SDS011;21916;52.428;13.302;2023-02-01T14:37:43;14.32;;;3.28;;
35795;SDS011;21916;52.428;13.302;2023-02-01T15:01:34;8.52;;;1.80;;
35795;SDS011;21916;52.428;13.302;2023-02-01T15:09:20;15.93;;;2.10;;
35795;SDS011;21916;52.428;13.302;2023-02-01T15:15:01;8.13;;;1.15;;
35795;SDS011;21916;52.428;13.302;2023-02-01T15:17:41;4.35;;;1.33;;
35795;SDS011;21916;52.428;13.302;2023-02-01T15:20:18;9.77;;;2.30;;
35795;SDS011;21916;52.428;13.302;2023-02-01T15:22:54;5.63;;;1.70;;
35795;SDS011;21916;52.428;13.302;2023-02-01T15:25:44;5.63;;;1.73;;
35795;SDS011;21916;52.428;13.302;2023-02-01T15:28:14;12.32;;;2.22;;
35795;SDS011;21916;52.428;13.302;2023-02-01T15:30:51;5.75;;;2.05;;
35795;SDS011;21916;52.428;13.302;2023-02-01T15:33:18;8.15;;;2.03;;
35795;SDS011;21916;52.428;13.302;2023-02-01T15:35:46;8.30;;;1.48;;
35795;SDS011;21916;52.428;13.302;2023-02-01T15:40:56;5.28;;;1.20;;
35795;SDS011;21916;52.428;13.302;2023-02-01T15:43:26;5.57;;;2.38;;
35795;SDS011;21916;52.428;13.302;2023-02-01T15:45:57;9.30;;;1.92;;
35795;SDS011;21916;52.428;13.302;2023-02-01T15:48:26;6.93;;;2.08;;
35795;SDS011;21916;52.428;13.302;2023-02-01T15:50:57;10.98;;;2.60;;
35795;SDS011;21916;52.428;13.302;2023-02-01T15:53:25;10.80;;;2.88;;
35795;SDS011;21916;52.428;13.302;2023-02-01T15:55:57;6.20;;;1.88;;
35795;SDS011;21916;52.428;13.302;2023-02-01T15:58:26;6.65;;;2.20;;
35795;SDS011;21916;52.428;13.302;2023-02-01T16:00:58;9.30;;;2.58;;
35795;SDS011;21916;52.428;13.302;2023-02-01T16:03:37;5.90;;;2.15;;
35795;SDS011;21916;52.428;13.302;2023-02-01T16:06:07;2.60;;;1.63;;
35795;SDS011;21916;52.428;13.302;2023-02-01T16:11:32;4.10;;;2.13;;
35795;SDS011;21916;52.428;13.302;2023-02-01T16:14:05;3.38;;;1.13;;
35795;SDS011;21916;52.428;13.302;2023-02-01T16:16:31;4.25;;;1.48;;
35795;SDS011;21916;52.428;13.302;2023-02-01T16:18:57;3.05;;;0.80;;
35795;SDS011;21916;52.428;13.302;2023-02-01T16:21:23;2.67;;;0.77;;
35795;SDS011;21916;52.428;13.302;2023-02-01T16:23:49;1.73;;;0.88;;
35795;SDS011;21916;52.428;13.302;2023-02-01T16:26:16;2.30;;;0.52;;
35795;SDS011;21916;52.428;13.302;2023-02-01T16:28:42;5.88;;;1.13;;
35795;SDS011;21916;52.428;13.302;2023-02-01T16:31:12;0.88;;;0.50;;
35795;SDS011;21916;52.428;13.302;2023-02-01T16:33:49;1.80;;;0.77;;
35795;SDS011;21916;52.428;13.302;2023-02-01T16:36:16;1.17;;;0.70;;
35795;SDS011;21916;52.428;13.302;2023-02-01T16:38:43;0.60;;;0.32;;
35795;SDS011;21916;52.428;13.302;2023-02-01T16:41:13;1.25;;;0.57;;
35795;SDS011;21916;52.428;13.302;2023-02-01T16:43:41;0.88;;;0.60;;
35795;SDS011;21916;52.428;13.302;2023-02-01T16:46:18;2.28;;;0.90;;
35795;SDS011;21916;52.428;13.302;2023-02-01T16:48:54;0.90;;;0.35;;
35795;SDS011;21916;52.428;13.302;2023-02-01T16:51:22;1.30;;;0.57;;
35795;SDS011;21916;52.428;13.302;2023-02-01T16:53:51;2.97;;;0.65;;
35795;SDS011;21916;52.428;13.302;2023-02-01T16:56:18;1.02;;;0.75;;
35795;SDS011;21916;52.428;13.302;2023-02-01T16:58:49;1.92;;;0.93;;
35795;SDS011;21916;52.428;13.302;2023-02-01T17:01:16;3.38;;;0.70;;
35795;SDS011;21916;52.428;13.302;2023-02-01T17:03:43;1.08;;;0.63;;
35795;SDS011;21916;52.428;13.302;2023-02-01T17:06:11;0.70;;;0.60;;
35795;SDS011;21916;52.428;13.302;2023-02-01T17:08:44;3.53;;;1.00;;
35795;SDS011;21916;52.428;13.302;2023-02-01T17:11:14;1.63;;;0.80;;
35795;SDS011;21916;52.428;13.302;2023-02-01T17:13:40;2.25;;;0.60;;
35795;SDS011;21916;52.428;13.302;2023-02-01T17:16:25;1.85;;;0.93;;
35795;SDS011;21916;52.428;13.302;2023-02-01T17:18:54;0.73;;;0.52;;
35795;SDS011;21916;52.428;13.302;2023-02-01T17:21:24;5.18;;;0.93;;
35795;SDS011;21916;52.428;13.302;2023-02-01T17:23:53;3.05;;;1.00;;